Time;durP1;ratioP1;P1;durP2;ratioP2;P2;SDS_P1;SDS_P2;PMS_P1;PMS_P2;Temp;Humidity;BMP_temperature;BMP_pressure;BME280_temperature;BME280_humidity;BME280_pressure;Samples;Min_cycle;Max_cycle;Signal;HPM_P1;HPM_P2
2021/11/03 00:01:11;;;;;;;898.83;606.58;;;;;;;;;;5077793;28;20026;-79
2021/11/03 00:03:37;;;;;;;901.33;612.55;;;;;;;;;;5068651;28;20024;-79
2021/11/03 00:06:03;;;;;;;900.45;603.28;;;;;;;;;;5066364;28;20036;-79
2021/11/03 00:08:30;;;;;;;896.10;592.20;;;;;;;;;;5060514;28;20056;-80
2021/11/03 00:10:56;;;;;;;893.60;575.00;;;;;;;;;;5076562;28;20032;-79
2021/11/03 00:13:24;;;;;;;891.42;576.58;;;;;;;;;;5067791;28;20043;-79
2021/11/03 00:15:51;;;;;;;891.40;575.08;;;;;;;;;;5081760;28;20028;-80
2021/11/03 00:18:17;;;;;;;888.50;565.90;;;;;;;;;;5066552;28;20119;-79
2021/11/03 00:20:44;;;;;;;896.20;592.00;;;;;;;;;;5057168;28;20489;-79
2021/11/03 00:23:10;;;;;;;881.35;538.25;;;;;;;;;;5058681;28;20032;-79
2021/11/03 00:25:45;;;;;;;888.13;563.75;;;;;;;;;;5057622;28;20032;-79
2021/11/03 00:28:12;;;;;;;885.08;543.13;;;;;;;;;;5080610;28;20037;-80
2021/11/03 00:30:38;;;;;;;890.53;565.65;;;;;;;;;;5063628;28;20123;-79
2021/11/03 00:33:04;;;;;;;885.50;555.30;;;;;;;;;;5074083;28;20032;-79
2021/11/03 00:35:31;;;;;;;892.05;574.00;;;;;;;;;;5066536;28;20408;-79
2021/11/03 00:37:57;;;;;;;896.55;583.53;;;;;;;;;;5063709;28;20449;-79
2021/11/03 00:40:23;;;;;;;887.55;555.20;;;;;;;;;;5086041;28;20103;-79
2021/11/03 00:42:50;;;;;;;887.78;554.53;;;;;;;;;;5067063;28;20399;-79
2021/11/03 00:45:17;;;;;;;881.30;531.80;;;;;;;;;;5086447;28;20028;-79
2021/11/03 00:47:44;;;;;;;874.45;502.92;;;;;;;;;;5064996;28;20119;-79
2021/11/03 00:50:10;;;;;;;873.63;499.60;;;;;;;;;;5052301;28;20029;-79
2021/11/03 00:52:36;;;;;;;881.83;529.13;;;;;;;;;;5076767;28;20051;-79
2021/11/03 00:55:02;;;;;;;873.10;497.50;;;;;;;;;;5086015;28;20028;-80
2021/11/03 00:57:28;;;;;;;864.08;455.70;;;;;;;;;;5063009;28;20388;-79
2021/11/03 00:59:54;;;;;;;869.45;486.27;;;;;;;;;;5068121;28;20131;-79
2021/11/03 01:02:20;;;;;;;871.03;494.50;;;;;;;;;;5062325;28;20093;-79
2021/11/03 01:04:46;;;;;;;870.45;501.83;;;;;;;;;;5076193;28;20032;-79
2021/11/03 01:07:12;;;;;;;870.17;481.45;;;;;;;;;;5059534;28;20119;-79
2021/11/03 01:09:38;;;;;;;869.08;476.23;;;;;;;;;;5059975;28;20512;-79
2021/11/03 01:12:05;;;;;;;862.47;454.67;;;;;;;;;;5055234;28;20488;-78
2021/11/03 01:14:31;;;;;;;867.00;475.45;;;;;;;;;;5064736;28;20028;-79
2021/11/03 01:16:57;;;;;;;858.13;445.65;;;;;;;;;;5084540;28;20576;-79
2021/11/03 01:19:23;;;;;;;866.70;474.83;;;;;;;;;;5075361;28;20139;-79
2021/11/03 01:21:50;;;;;;;862.67;466.02;;;;;;;;;;5065235;28;20478;-79
2021/11/03 01:24:16;;;;;;;855.65;432.45;;;;;;;;;;5066109;28;20032;-79
2021/11/03 01:26:42;;;;;;;854.88;433.23;;;;;;;;;;5068156;28;20092;-79
2021/11/03 01:29:08;;;;;;;858.38;441.73;;;;;;;;;;5075170;28;20032;-78
2021/11/03 01:31:34;;;;;;;864.55;472.67;;;;;;;;;;5049962;28;20404;-78
2021/11/03 01:34:02;;;;;;;853.60;423.25;;;;;;;;;;5071517;28;20111;-80
2021/11/03 01:36:28;;;;;;;854.70;438.33;;;;;;;;;;5070903;28;20109;-79
2021/11/03 01:38:54;;;;;;;859.10;433.50;;;;;;;;;;5067038;28;20040;-79
2021/11/03 01:41:25;;;;;;;860.50;460.05;;;;;;;;;;5064480;28;20020;-80
2021/11/03 01:43:59;;;;;;;856.88;432.58;;;;;;;;;;5059097;28;20492;-78
2021/11/03 01:46:26;;;;;;;867.50;469.35;;;;;;;;;;5075037;28;20043;-79
2021/11/03 01:49:19;;;;;;;860.08;455.65;;;;;;;;;;5054631;28;20070;-79
2021/11/03 01:51:47;;;;;;;857.78;441.17;;;;;;;;;;5057503;28;20170;-79
2021/11/03 01:54:16;;;;;;;854.20;423.83;;;;;;;;;;5050363;28;20024;-79
2021/11/03 01:56:42;;;;;;;868.63;485.88;;;;;;;;;;5058201;28;20051;-79
2021/11/03 01:59:26;;;;;;;861.88;476.83;;;;;;;;;;5063150;28;20021;-79
2021/11/03 02:01:52;;;;;;;865.42;486.02;;;;;;;;;;5063502;28;20032;-79
2021/11/03 02:04:19;;;;;;;868.72;488.08;;;;;;;;;;5069691;28;20032;-79
2021/11/03 02:06:45;;;;;;;877.45;519.50;;;;;;;;;;5064028;28;20028;-79
2021/11/03 02:09:11;;;;;;;876.20;523.97;;;;;;;;;;5074656;28;20566;-79
2021/11/03 02:11:38;;;;;;;866.03;484.88;;;;;;;;;;5074593;28;20039;-78
2021/11/03 02:14:05;;;;;;;866.70;481.75;;;;;;;;;;5079771;28;20029;-78
2021/11/03 02:16:31;;;;;;;859.03;460.38;;;;;;;;;;5068405;28;20028;-79
2021/11/03 02:18:57;;;;;;;864.85;478.00;;;;;;;;;;5064913;28;20040;-79
2021/11/03 02:21:31;;;;;;;867.63;491.65;;;;;;;;;;5064156;28;20388;-78
2021/11/03 02:24:17;;;;;;;869.63;489.73;;;;;;;;;;5059545;28;20485;-78
2021/11/03 02:26:44;;;;;;;867.70;479.25;;;;;;;;;;5062077;28;20039;-79
2021/11/03 02:29:11;;;;;;;856.50;440.67;;;;;;;;;;5081176;28;20033;-78
2021/11/03 02:31:42;;;;;;;864.22;473.45;;;;;;;;;;5063347;28;20035;-79
2021/11/03 02:34:10;;;;;;;861.88;460.13;;;;;;;;;;5056958;28;20476;-79
2021/11/03 02:36:49;;;;;;;852.33;424.40;;;;;;;;;;5066399;28;20089;-79
2021/11/03 02:39:16;;;;;;;847.50;414.15;;;;;;;;;;5082666;28;20028;-78
2021/11/03 02:41:43;;;;;;;852.22;426.20;;;;;;;;;;5076237;28;20028;-79
2021/11/03 02:44:14;;;;;;;852.13;424.85;;;;;;;;;;5054027;28;20059;-78
2021/11/03 02:46:42;;;;;;;869.17;485.88;;;;;;;;;;5055239;28;20039;-78
2021/11/03 02:49:08;;;;;;;862.08;465.85;;;;;;;;;;5077862;28;20027;-79
2021/11/03 02:51:35;;;;;;;863.65;476.63;;;;;;;;;;5061533;28;20286;-79
2021/11/03 02:54:04;;;;;;;867.15;487.73;;;;;;;;;;5086866;28;20038;-77
2021/11/03 02:56:31;;;;;;;876.83;522.40;;;;;;;;;;5080912;28;20082;-78
2021/11/03 02:58:58;;;;;;;873.22;520.67;;;;;;;;;;5070299;28;20456;-78
2021/11/03 03:01:32;;;;;;;875.58;522.25;;;;;;;;;;5068841;28;20024;-79
2021/11/03 03:03:59;;;;;;;880.78;539.35;;;;;;;;;;5067167;28;20025;-79
2021/11/03 03:06:26;;;;;;;875.38;529.33;;;;;;;;;;5075360;28;20403;-78
2021/11/03 03:08:53;;;;;;;876.80;522.50;;;;;;;;;;5084997;28;20474;-79
2021/11/03 03:11:20;;;;;;;880.95;537.90;;;;;;;;;;5055336;28;20033;-79
2021/11/03 03:13:46;;;;;;;879.50;532.70;;;;;;;;;;5069481;28;20028;-79
2021/11/03 03:16:12;;;;;;;879.03;536.85;;;;;;;;;;5079673;28;20047;-78
2021/11/03 03:18:38;;;;;;;884.20;544.45;;;;;;;;;;5081712;28;20055;-78
2021/11/03 03:21:04;;;;;;;881.08;537.53;;;;;;;;;;5068506;28;20040;-78
2021/11/03 03:23:30;;;;;;;874.25;517.65;;;;;;;;;;5082546;28;20033;-79
2021/11/03 03:25:56;;;;;;;889.67;523.05;;;;;;;;;;5072828;28;20480;-78
2021/11/03 03:28:23;;;;;;;873.58;516.50;;;;;;;;;;5069632;28;20180;-77
2021/11/03 03:30:48;;;;;;;882.55;547.25;;;;;;;;;;5058181;28;20035;-79
2021/11/03 03:33:14;;;;;;;883.25;545.88;;;;;;;;;;5081986;28;20507;-79
2021/11/03 03:35:40;;;;;;;871.33;511.20;;;;;;;;;;5071161;28;20356;-78
2021/11/03 03:38:06;;;;;;;871.83;507.45;;;;;;;;;;5068239;28;20024;-79
2021/11/03 03:40:32;;;;;;;881.45;544.88;;;;;;;;;;5067037;28;20138;-78
2021/11/03 03:42:58;;;;;;;882.33;543.83;;;;;;;;;;5067181;28;20028;-78
2021/11/03 03:45:24;;;;;;;882.78;537.08;;;;;;;;;;5060867;28;20035;-79
2021/11/03 03:47:50;;;;;;;883.33;539.35;;;;;;;;;;5066041;28;20074;-78
2021/11/03 03:50:16;;;;;;;882.50;535.40;;;;;;;;;;5086258;28;20024;-78
2021/11/03 03:52:42;;;;;;;883.88;541.25;;;;;;;;;;5074454;28;20534;-78
2021/11/03 03:55:09;;;;;;;879.15;527.50;;;;;;;;;;5055308;28;20033;-78
2021/11/03 03:57:35;;;;;;;878.28;519.40;;;;;;;;;;5070111;28;20032;-79
2021/11/03 04:00:01;;;;;;;873.45;496.65;;;;;;;;;;5063478;28;20103;-78
2021/11/03 04:02:27;;;;;;;877.67;522.35;;;;;;;;;;5070102;28;20024;-79
2021/11/03 04:04:53;;;;;;;875.03;503.50;;;;;;;;;;5064287;28;20025;-78
2021/11/03 04:07:19;;;;;;;868.50;493.52;;;;;;;;;;5060419;28;20085;-78
2021/11/03 04:09:45;;;;;;;874.03;506.08;;;;;;;;;;5059643;28;20040;-79
2021/11/03 04:12:11;;;;;;;869.78;491.27;;;;;;;;;;5064588;28;20054;-78
2021/11/03 04:14:37;;;;;;;870.42;494.45;;;;;;;;;;5060884;28;20031;-79
2021/11/03 04:17:03;;;;;;;864.17;467.45;;;;;;;;;;5077251;28;20554;-79
2021/11/03 04:19:29;;;;;;;869.03;480.85;;;;;;;;;;5058624;28;20059;-77
2021/11/03 04:21:55;;;;;;;859.50;447.58;;;;;;;;;;5052113;28;20539;-77
2021/11/03 04:24:21;;;;;;;866.75;477.38;;;;;;;;;;5064986;28;20024;-77
2021/11/03 04:26:49;;;;;;;866.92;468.80;;;;;;;;;;5055339;28;20489;-79
2021/11/03 04:29:15;;;;;;;865.78;478.23;;;;;;;;;;5074626;28;20041;-78
2021/11/03 04:31:41;;;;;;;875.33;501.75;;;;;;;;;;5059849;28;20503;-79
2021/11/03 04:34:07;;;;;;;869.05;487.15;;;;;;;;;;5084693;28;20333;-79
2021/11/03 04:36:33;;;;;;;871.78;497.08;;;;;;;;;;5070436;28;20031;-77
2021/11/03 04:39:01;;;;;;;870.10;477.00;;;;;;;;;;5078085;28;20024;-78
2021/11/03 04:41:27;;;;;;;859.60;450.42;;;;;;;;;;5078113;28;20465;-79
2021/11/03 04:43:53;;;;;;;867.95;476.58;;;;;;;;;;5081004;28;20032;-78
2021/11/03 04:46:19;;;;;;;866.42;472.02;;;;;;;;;;5052745;28;20042;-79
2021/11/03 04:48:45;;;;;;;862.20;453.05;;;;;;;;;;5084871;28;20024;-79
2021/11/03 04:51:11;;;;;;;861.20;449.15;;;;;;;;;;5061394;28;20032;-79
2021/11/03 04:53:38;;;;;;;862.35;464.58;;;;;;;;;;5068878;28;20228;-78
2021/11/03 04:56:05;;;;;;;861.40;452.35;;;;;;;;;;5057600;28;20460;-79
2021/11/03 04:58:31;;;;;;;864.42;462.90;;;;;;;;;;5052378;28;20024;-79
2021/11/03 05:00:58;;;;;;;860.88;452.40;;;;;;;;;;5069227;28;20109;-77
2021/11/03 05:03:24;;;;;;;862.05;455.92;;;;;;;;;;5064971;28;20039;-78
2021/11/03 05:05:51;;;;;;;857.90;451.17;;;;;;;;;;5061736;28;20031;-76
2021/11/03 05:08:17;;;;;;;862.35;468.90;;;;;;;;;;5087026;28;20028;-79
2021/11/03 05:10:43;;;;;;;864.22;465.25;;;;;;;;;;5060220;28;20028;-77
2021/11/03 05:13:09;;;;;;;860.20;450.13;;;;;;;;;;5066464;28;20360;-78
2021/11/03 05:15:35;;;;;;;872.33;499.13;;;;;;;;;;5059428;28;20123;-78
2021/11/03 05:18:01;;;;;;;863.28;468.77;;;;;;;;;;5077730;28;20433;-78
2021/11/03 05:20:27;;;;;;;865.70;473.73;;;;;;;;;;5054289;28;20517;-78
2021/11/03 05:22:54;;;;;;;865.25;475.92;;;;;;;;;;5083216;28;20032;-79
2021/11/03 05:25:22;;;;;;;864.63;470.90;;;;;;;;;;5066108;28;20036;-79
2021/11/03 05:27:48;;;;;;;869.67;487.88;;;;;;;;;;5068796;28;20036;-79
2021/11/03 05:30:15;;;;;;;862.40;463.33;;;;;;;;;;5069071;28;20070;-79
2021/11/03 05:32:41;;;;;;;861.38;462.65;;;;;;;;;;5081115;28;20038;-78
2021/11/03 05:35:07;;;;;;;862.60;455.10;;;;;;;;;;5053998;28;20012;-78
2021/11/03 05:37:33;;;;;;;860.45;458.77;;;;;;;;;;5060457;28;20107;-78
2021/11/03 05:39:59;;;;;;;862.92;464.63;;;;;;;;;;5052809;28;20032;-79
2021/11/03 05:42:25;;;;;;;867.60;480.90;;;;;;;;;;5062026;28;20025;-79
2021/11/03 05:44:51;;;;;;;869.15;490.67;;;;;;;;;;5075325;28;20362;-79
2021/11/03 05:47:20;;;;;;;872.45;489.65;;;;;;;;;;5062125;28;20028;-78
2021/11/03 05:49:46;;;;;;;863.42;470.80;;;;;;;;;;5054100;28;20036;-79
2021/11/03 05:52:12;;;;;;;867.33;479.88;;;;;;;;;;5080568;28;20476;-78
2021/11/03 05:54:38;;;;;;;867.03;476.92;;;;;;;;;;5070805;28;20058;-79
2021/11/03 05:57:04;;;;;;;861.50;455.60;;;;;;;;;;5073449;28;20032;-78
2021/11/03 05:59:31;;;;;;;865.70;475.27;;;;;;;;;;5085588;28;20561;-78
2021/11/03 06:01:57;;;;;;;866.75;479.40;;;;;;;;;;5064092;28;20482;-78
2021/11/03 06:04:23;;;;;;;870.05;486.38;;;;;;;;;;5076692;28;20024;-80
2021/11/03 06:06:49;;;;;;;870.38;485.13;;;;;;;;;;5061804;28;20048;-79
2021/11/03 06:09:15;;;;;;;875.95;503.98;;;;;;;;;;5065474;28;20460;-79
2021/11/03 06:11:43;;;;;;;864.03;467.58;;;;;;;;;;5079817;28;20397;-79
2021/11/03 06:14:09;;;;;;;866.97;475.52;;;;;;;;;;5056461;28;20036;-80
2021/11/03 06:16:35;;;;;;;867.05;479.60;;;;;;;;;;5083621;28;20082;-79
2021/11/03 06:19:01;;;;;;;859.70;460.75;;;;;;;;;;5058185;28;20608;-79
2021/11/03 06:21:27;;;;;;;863.63;467.45;;;;;;;;;;5066507;28;20535;-78
2021/11/03 06:23:53;;;;;;;864.08;474.92;;;;;;;;;;5058905;28;20029;-78
2021/11/03 06:26:20;;;;;;;861.08;460.83;;;;;;;;;;5067428;28;20525;-78
2021/11/03 06:28:46;;;;;;;869.05;483.73;;;;;;;;;;5069899;28;20496;-78
2021/11/03 06:31:13;;;;;;;859.90;457.95;;;;;;;;;;5051381;28;20036;-78
2021/11/03 06:33:39;;;;;;;870.55;489.58;;;;;;;;;;5065166;28;20408;-79
2021/11/03 06:36:05;;;;;;;864.35;461.52;;;;;;;;;;5079389;28;20098;-78
2021/11/03 06:38:31;;;;;;;866.10;467.85;;;;;;;;;;5064054;28;20035;-79
2021/11/03 06:40:58;;;;;;;863.05;458.20;;;;;;;;;;5062203;28;20017;-79
2021/11/03 06:43:24;;;;;;;868.70;469.88;;;;;;;;;;5065162;28;20159;-78
2021/11/03 06:45:50;;;;;;;863.90;457.65;;;;;;;;;;5054366;28;20119;-79
2021/11/03 06:48:16;;;;;;;867.35;478.23;;;;;;;;;;5072464;28;20103;-79
2021/11/03 06:50:42;;;;;;;867.83;474.80;;;;;;;;;;5062695;28;20464;-78
2021/11/03 06:53:11;;;;;;;865.53;463.90;;;;;;;;;;5067006;28;20032;-78
2021/11/03 06:55:38;;;;;;;871.63;495.88;;;;;;;;;;5051832;28;20495;-78
2021/11/03 06:58:04;;;;;;;867.08;470.73;;;;;;;;;;5061560;28;20021;-79
2021/11/03 07:00:32;;;;;;;862.78;457.05;;;;;;;;;;5062977;28;20269;-79
2021/11/03 07:03:00;;;;;;;871.20;491.85;;;;;;;;;;5063924;28;20040;-79
2021/11/03 07:05:26;;;;;;;864.75;463.38;;;;;;;;;;5063887;28;20500;-79
2021/11/03 07:07:52;;;;;;;860.88;455.55;;;;;;;;;;5077910;28;20040;-78
2021/11/03 07:10:20;;;;;;;863.20;452.55;;;;;;;;;;5083400;28;20209;-79
2021/11/03 07:12:46;;;;;;;859.42;450.08;;;;;;;;;;5068234;28;20437;-78
2021/11/03 07:15:12;;;;;;;862.30;459.80;;;;;;;;;;5070955;28;20449;-78
2021/11/03 07:17:38;;;;;;;858.88;451.27;;;;;;;;;;5060212;28;20045;-79
2021/11/03 07:20:04;;;;;;;869.30;457.98;;;;;;;;;;5044318;28;20491;-79
2021/11/03 07:22:30;;;;;;;862.17;454.73;;;;;;;;;;5044901;28;20033;-80
2021/11/03 07:24:56;;;;;;;861.50;447.17;;;;;;;;;;5046517;28;20028;-80
2021/11/03 07:27:22;;;;;;;864.65;456.13;;;;;;;;;;5043782;28;20037;-79
2021/11/03 07:29:49;;;;;;;861.65;447.70;;;;;;;;;;5059546;28;20067;-78
2021/11/03 07:32:15;;;;;;;866.47;462.33;;;;;;;;;;5037503;28;20056;-78
2021/11/03 07:34:41;;;;;;;859.30;443.20;;;;;;;;;;5044008;28;20034;-80
2021/11/03 07:37:08;;;;;;;859.33;442.08;;;;;;;;;;5038565;28;20116;-78
2021/11/03 07:39:34;;;;;;;863.08;457.35;;;;;;;;;;5038089;28;20543;-78
2021/11/03 07:42:00;;;;;;;860.92;443.98;;;;;;;;;;5037063;28;20029;-78
2021/11/03 07:44:28;;;;;;;865.72;464.73;;;;;;;;;;5046829;28;20112;-77
2021/11/03 07:46:54;;;;;;;864.35;452.05;;;;;;;;;;5046258;28;20448;-79
2021/11/03 07:49:20;;;;;;;862.15;451.45;;;;;;;;;;5042319;28;20030;-79
2021/11/03 07:51:46;;;;;;;858.85;440.08;;;;;;;;;;5042161;28;20033;-80
2021/11/03 07:54:12;;;;;;;853.30;422.48;;;;;;;;;;5044917;28;20051;-79
2021/11/03 07:56:39;;;;;;;859.50;443.90;;;;;;;;;;5043137;28;20091;-79
2021/11/03 07:59:06;;;;;;;862.78;439.65;;;;;;;;;;5041778;28;20029;-79
2021/11/03 08:01:32;;;;;;;855.85;422.08;;;;;;;;;;5052215;28;20534;-80
2021/11/03 08:03:58;;;;;;;857.80;431.40;;;;;;;;;;5043876;28;20033;-78
2021/11/03 08:06:25;;;;;;;858.22;433.48;;;;;;;;;;5041829;28;20029;-78
2021/11/03 08:09:13;;;;;;;858.80;431.35;;;;;;;;;;5043837;28;20030;-78
2021/11/03 08:11:48;;;;;;;855.90;415.08;;;;;;;;;;5043745;28;20051;-79
2021/11/03 08:14:14;;;;;;;855.53;428.85;;;;;;;;;;5033031;28;20035;-78
2021/11/03 08:16:51;;;;;;;861.03;440.67;;;;;;;;;;5037589;28;20191;-79
2021/11/03 08:19:18;;;;;;;855.85;424.65;;;;;;;;;;5077578;28;20044;-78
2021/11/03 08:21:44;;;;;;;859.55;444.58;;;;;;;;;;5080103;28;20032;-79
2021/11/03 08:24:10;;;;;;;861.58;449.83;;;;;;;;;;5087122;28;20103;-78
2021/11/03 08:26:36;;;;;;;860.42;453.23;;;;;;;;;;5068188;28;20427;-77
2021/11/03 08:29:03;;;;;;;856.95;435.27;;;;;;;;;;5066240;28;20039;-78
2021/11/03 08:31:29;;;;;;;864.58;450.63;;;;;;;;;;5067316;28;20399;-78
2021/11/03 08:33:55;;;;;;;862.95;447.08;;;;;;;;;;5060209;28;20476;-78
2021/11/03 08:36:21;;;;;;;868.50;472.77;;;;;;;;;;5065639;28;20255;-79
2021/11/03 08:38:48;;;;;;;870.10;486.30;;;;;;;;;;5064094;28;20024;-78
2021/11/03 08:41:14;;;;;;;860.88;451.70;;;;;;;;;;5057146;28;20031;-78
2021/11/03 08:43:42;;;;;;;863.78;467.13;;;;;;;;;;5080769;28;20388;-79
2021/11/03 08:46:08;;;;;;;868.22;477.30;;;;;;;;;;5064265;28;20039;-79
2021/11/03 08:48:34;;;;;;;867.17;469.90;;;;;;;;;;5084705;28;20048;-79
2021/11/03 08:51:01;;;;;;;862.83;462.80;;;;;;;;;;5068498;28;20035;-78
2021/11/03 08:53:27;;;;;;;871.42;490.63;;;;;;;;;;5062987;28;20039;-78
2021/11/03 08:55:54;;;;;;;871.63;492.10;;;;;;;;;;5083326;28;20474;-79
2021/11/03 08:58:22;;;;;;;868.25;478.17;;;;;;;;;;5089311;28;20368;-78
2021/11/03 09:00:49;;;;;;;875.75;510.98;;;;;;;;;;5085677;28;20197;-79
2021/11/03 09:03:15;;;;;;;873.15;502.98;;;;;;;;;;5068950;28;20031;-78
2021/11/03 09:05:41;;;;;;;875.83;514.45;;;;;;;;;;5069055;28;20039;-79
2021/11/03 09:08:08;;;;;;;885.10;535.03;;;;;;;;;;5056148;28;20032;-78
2021/11/03 09:10:39;;;;;;;873.95;504.35;;;;;;;;;;5079556;28;20046;-79
2021/11/03 09:13:05;;;;;;;874.80;515.28;;;;;;;;;;5088429;28;20032;-78
2021/11/03 09:15:31;;;;;;;877.40;527.70;;;;;;;;;;5055347;28;20468;-79
2021/11/03 09:17:57;;;;;;;876.42;519.13;;;;;;;;;;5072262;28;20407;-79
2021/11/03 09:20:25;;;;;;;884.88;558.40;;;;;;;;;;5060881;28;20535;-79
2021/11/03 09:22:51;;;;;;;883.42;546.13;;;;;;;;;;5075601;28;20364;-78
2021/11/03 09:25:19;;;;;;;887.17;568.35;;;;;;;;;;5065817;28;20028;-79
2021/11/03 09:27:47;;;;;;;881.88;547.33;;;;;;;;;;5050347;28;20024;-79
2021/11/03 09:30:16;;;;;;;885.60;559.28;;;;;;;;;;5080400;28;20023;-80
2021/11/03 09:32:44;;;;;;;894.03;591.67;;;;;;;;;;5081737;28;20028;-79
2021/11/03 09:35:10;;;;;;;893.80;589.55;;;;;;;;;;5076339;28;20091;-80
2021/11/03 09:37:37;;;;;;;891.85;582.97;;;;;;;;;;5074976;28;20080;-79
2021/11/03 09:40:05;;;;;;;888.00;577.55;;;;;;;;;;5073163;28;20028;-79
2021/11/03 09:42:31;;;;;;;901.08;619.75;;;;;;;;;;5069186;28;20380;-79
2021/11/03 09:44:58;;;;;;;906.53;642.45;;;;;;;;;;5068729;28;20024;-80
2021/11/03 09:47:24;;;;;;;900.95;615.65;;;;;;;;;;5086178;28;20032;-79
2021/11/03 09:49:55;;;;;;;897.08;607.72;;;;;;;;;;5083978;28;20434;-79
2021/11/03 09:52:25;;;;;;;899.60;618.78;;;;;;;;;;5069383;28;20424;-79
2021/11/03 09:54:52;;;;;;;897.20;612.30;;;;;;;;;;5074333;28;20507;-79
2021/11/03 09:57:27;;;;;;;898.33;613.58;;;;;;;;;;5067936;28;20133;-79
2021/11/03 10:00:12;;;;;;;892.50;600.13;;;;;;;;;;5080241;28;20094;-79
2021/11/03 10:02:57;;;;;;;891.17;596.67;;;;;;;;;;5082837;28;20024;-80
2021/11/03 10:05:32;;;;;;;886.80;576.55;;;;;;;;;;5071221;28;20040;-79
2021/11/03 10:08:04;;;;;;;892.22;593.65;;;;;;;;;;5070126;28;20514;-79
2021/11/03 10:10:37;;;;;;;884.97;577.50;;;;;;;;;;5060787;28;20032;-80
2021/11/03 10:13:12;;;;;;;900.55;600.70;;;;;;;;;;5059262;28;20035;-79
2021/11/03 10:15:38;;;;;;;890.22;590.92;;;;;;;;;;5073172;28;20583;-80
2021/11/03 10:18:09;;;;;;;891.13;590.95;;;;;;;;;;5067861;28;20134;-79
2021/11/03 10:20:40;;;;;;;897.63;614.60;;;;;;;;;;5056928;28;20024;-81
2021/11/03 10:23:18;;;;;;;901.45;622.20;;;;;;;;;;5064154;28;20522;-79
2021/11/03 10:26:07;;;;;;;883.90;567.58;;;;;;;;;;5064008;28;20738;-79
2021/11/03 10:28:38;;;;;;;891.50;595.20;;;;;;;;;;5059731;28;20200;-80
2021/11/03 10:31:06;;;;;;;892.78;600.90;;;;;;;;;;5065782;28;20040;-80
2021/11/03 10:33:38;;;;;;;896.53;609.83;;;;;;;;;;5065536;28;20528;-80
2021/11/03 10:36:16;;;;;;;894.45;606.83;;;;;;;;;;5065802;28;20017;-80
2021/11/03 10:39:02;;;;;;;902.83;638.83;;;;;;;;;;5065642;28;20074;-80
2021/11/03 10:41:31;;;;;;;903.83;637.80;;;;;;;;;;5065106;28;20020;-80
2021/11/03 10:44:02;;;;;;;914.15;667.45;;;;;;;;;;5076402;28;20028;-80
2021/11/03 10:46:31;;;;;;;913.30;669.03;;;;;;;;;;5089369;28;20043;-80
2021/11/03 10:49:23;;;;;;;900.92;636.38;;;;;;;;;;5088026;28;20181;-80
2021/11/03 10:52:10;;;;;;;909.17;656.60;;;;;;;;;;5089836;28;20554;-80
2021/11/03 10:54:37;;;;;;;902.78;642.63;;;;;;;;;;5089557;28;20028;-80
2021/11/03 10:57:16;;;;;;;915.67;659.92;;;;;;;;;;5089468;28;20038;-79
2021/11/03 10:59:50;;;;;;;909.83;663.28;;;;;;;;;;5091144;28;20028;-80
2021/11/03 11:02:25;;;;;;;913.70;680.15;;;;;;;;;;5088746;28;20069;-80
2021/11/03 11:04:53;;;;;;;912.55;672.17;;;;;;;;;;5090599;28;20077;-80
2021/11/03 11:07:22;;;;;;;913.45;677.58;;;;;;;;;;5089316;28;20077;-80
2021/11/03 11:09:58;;;;;;;907.92;671.10;;;;;;;;;;5089018;28;20407;-80
2021/11/03 11:12:32;;;;;;;910.72;669.83;;;;;;;;;;5089325;28;20032;-80
2021/11/03 11:15:06;;;;;;;918.08;699.60;;;;;;;;;;5088698;28;20475;-80
2021/11/03 11:17:38;;;;;;;915.20;685.60;;;;;;;;;;5087936;28;20051;-80
2021/11/03 11:20:08;;;;;;;919.63;697.63;;;;;;;;;;5049924;28;20021;-81
2021/11/03 11:22:43;;;;;;;906.97;659.50;;;;;;;;;;5051697;28;20108;-80
2021/11/03 11:25:09;;;;;;;909.75;663.88;;;;;;;;;;5051899;28;20027;-80
2021/11/03 11:27:38;;;;;;;910.20;676.47;;;;;;;;;;5051700;28;20487;-80
2021/11/03 11:30:16;;;;;;;924.45;718.58;;;;;;;;;;5051313;28;20017;-80
2021/11/03 11:33:04;;;;;;;912.58;678.92;;;;;;;;;;5069527;28;20061;-80
2021/11/03 11:35:36;;;;;;;908.80;676.65;;;;;;;;;;5073752;28;20024;-80
2021/11/03 11:38:20;;;;;;;923.88;710.50;;;;;;;;;;5088585;28;20076;-81
2021/11/03 11:41:10;;;;;;;915.20;690.70;;;;;;;;;;5089911;28;20048;-80
2021/11/03 11:43:39;;;;;;;919.70;711.23;;;;;;;;;;5077880;28;20457;-80
2021/11/03 11:46:20;;;;;;;912.72;692.42;;;;;;;;;;5089875;28;20110;-80
2021/11/03 11:48:45;;;;;;;;;;;;;;;;;;5088001;28;20032;-80
2021/11/03 11:51:24;;;;;;;910.17;665.90;;;;;;;;;;5086991;28;19904;-80
2021/11/03 11:53:56;;;;;;;930.95;727.08;;;;;;;;;;5087723;28;20093;-81
2021/11/03 11:56:30;;;;;;;934.00;750.72;;;;;;;;;;5089390;28;20081;-80
2021/11/03 11:58:59;;;;;;;930.47;750.58;;;;;;;;;;5087789;28;20020;-80
2021/11/03 12:01:27;;;;;;;923.13;728.20;;;;;;;;;;5088316;28;20024;-80
2021/11/03 12:04:02;;;;;;;936.90;770.85;;;;;;;;;;5088172;28;20459;-80
2021/11/03 12:06:50;;;;;;;923.63;731.63;;;;;;;;;;5088655;28;20039;-80
2021/11/03 12:09:37;;;;;;;924.15;727.97;;;;;;;;;;5087475;28;20504;-80
2021/11/03 12:12:06;;;;;;;929.35;743.90;;;;;;;;;;5088017;28;20028;-80
2021/11/03 12:14:33;;;;;;;939.17;773.67;;;;;;;;;;5089180;28;20035;-80
2021/11/03 12:17:08;;;;;;;942.33;785.80;;;;;;;;;;5088658;28;20149;-80
2021/11/03 12:19:41;;;;;;;940.45;781.72;;;;;;;;;;5068757;28;20468;-80
2021/11/03 12:22:10;;;;;;;935.03;768.92;;;;;;;;;;5065775;28;20060;-79
2021/11/03 12:24:44;;;;;;;934.22;770.53;;;;;;;;;;5083116;28;20123;-79
2021/11/03 12:27:22;;;;;;;926.17;739.35;;;;;;;;;;5072184;28;20067;-79
2021/11/03 12:29:54;;;;;;;931.40;759.40;;;;;;;;;;5067774;28;20362;-79
2021/11/03 12:32:40;;;;;;;938.38;777.30;;;;;;;;;;5073472;28;20445;-79
2021/11/03 12:35:18;;;;;;;915.65;719.50;;;;;;;;;;5070187;28;20475;-79
2021/11/03 12:37:47;;;;;;;922.13;735.65;;;;;;;;;;5089009;28;20086;-79
2021/11/03 12:40:23;;;;;;;915.33;718.95;;;;;;;;;;5074588;28;20028;-78
2021/11/03 12:42:53;;;;;;;934.33;768.22;;;;;;;;;;5079753;28;20401;-79
2021/11/03 12:45:40;;;;;;;937.70;773.78;;;;;;;;;;5089372;28;20392;-78
2021/11/03 12:48:44;;;;;;;936.63;766.30;;;;;;;;;;5054858;28;20048;-79
2021/11/03 12:51:24;;;;;;;934.55;766.13;;;;;;;;;;4986055;28;20027;-78
2021/11/03 12:53:52;;;;;;;932.92;763.63;;;;;;;;;;4977809;28;20034;-79
2021/11/03 12:56:25;;;;;;;939.33;785.05;;;;;;;;;;5035006;28;20031;-79
2021/11/03 12:59:00;;;;;;;943.38;794.33;;;;;;;;;;5050912;28;20024;-79
2021/11/03 13:01:28;;;;;;;939.72;788.90;;;;;;;;;;5085772;28;20024;-79
2021/11/03 13:04:03;;;;;;;936.70;776.47;;;;;;;;;;5068633;28;20066;-78
2021/11/03 13:06:35;;;;;;;935.75;773.10;;;;;;;;;;5069895;28;20028;-79
2021/11/03 13:09:02;;;;;;;933.30;752.50;;;;;;;;;;5067863;28;20035;-79
2021/11/03 13:11:37;;;;;;;917.33;728.25;;;;;;;;;;5069480;28;20024;-79
2021/11/03 13:14:06;;;;;;;924.35;742.75;;;;;;;;;;5067145;28;20037;-79
2021/11/03 13:16:32;;;;;;;928.08;752.38;;;;;;;;;;5054745;28;20035;-79
2021/11/03 13:18:58;;;;;;;925.03;739.72;;;;;;;;;;5086693;28;20048;-79
2021/11/03 13:21:35;;;;;;;910.75;709.35;;;;;;;;;;5087418;28;20464;-79
2021/11/03 13:24:27;;;;;;;922.85;736.08;;;;;;;;;;5073331;28;20043;-79
2021/11/03 13:26:54;;;;;;;901.15;673.75;;;;;;;;;;5083760;28;20043;-79
2021/11/03 13:29:22;;;;;;;913.10;697.92;;;;;;;;;;5077299;28;20515;-79
2021/11/03 13:32:02;;;;;;;926.08;745.67;;;;;;;;;;5055380;28;20028;-79
2021/11/03 13:34:28;;;;;;;917.53;714.63;;;;;;;;;;5088091;28;20028;-79
2021/11/03 13:37:00;;;;;;;918.92;727.58;;;;;;;;;;5054490;28;20035;-79
2021/11/03 13:39:33;;;;;;;928.20;758.17;;;;;;;;;;5071095;28;20082;-79
2021/11/03 13:42:00;;;;;;;920.47;728.75;;;;;;;;;;5058504;28;20496;-79
2021/11/03 13:44:26;;;;;;;936.60;770.42;;;;;;;;;;5086211;28;20041;-79
2021/11/03 13:46:57;;;;;;;934.72;779.08;;;;;;;;;;5072961;28;20039;-79
2021/11/03 13:49:24;;;;;;;921.15;742.50;;;;;;;;;;5071835;28;20032;-79
2021/11/03 13:51:57;;;;;;;923.50;751.03;;;;;;;;;;5077205;28;20138;-79
2021/11/03 13:54:36;;;;;;;930.53;766.33;;;;;;;;;;5084421;28;20035;-79
2021/11/03 13:57:04;;;;;;;928.58;751.72;;;;;;;;;;5051477;28;20024;-79
2021/11/03 13:59:35;;;;;;;934.65;778.55;;;;;;;;;;5074091;28;20115;-80
2021/11/03 14:02:01;;;;;;;;;;;;;;;;;;5069785;28;20201;-79
2021/11/03 14:04:30;;;;;;;;;;;;;;;;;;5051802;28;19916;-79